createdAt,value
2022-09-01T03:50:01.154Z,0.00
2022-09-01T03:51:02.163Z,0.00
2022-09-01T03:52:02.136Z,0.00
2022-09-01T03:53:02.122Z,0.00
2022-09-01T03:54:02.145Z,0.00
2022-09-01T03:55:02.088Z,0.00
2022-09-01T03:56:02.100Z,0.00
2022-09-01T03:57:02.107Z,0.00
2022-09-01T03:58:02.095Z,0.00
2022-09-01T03:59:02.061Z,0.00
2022-09-01T04:00:02.047Z,0.00
2022-09-01T04:01:11.060Z,0.00
2022-09-01T04:02:02.062Z,0.00
2022-09-01T04:03:02.017Z,0.00
2022-09-01T04:04:01.994Z,0.00
2022-09-01T04:05:04.369Z,0.00
2022-09-01T04:06:02.020Z,0.00
2022-09-01T04:07:01.963Z,0.00
2022-09-01T04:08:01.944Z,0.00
2022-09-01T04:09:01.949Z,0.00
2022-09-01T04:10:01.922Z,0.00
2022-09-01T04:11:01.919Z,0.00
2022-09-01T04:12:01.901Z,0.00
2022-09-01T04:13:01.904Z,0.00
2022-09-01T04:14:01.893Z,0.00
2022-09-01T04:15:01.876Z,0.00
2022-09-01T04:16:01.913Z,0.00
2022-09-01T04:17:01.856Z,0.00
2022-09-01T04:18:01.857Z,0.00
2022-09-01T04:19:01.831Z,0.00
2022-09-01T04:20:01.850Z,0.00
2022-09-01T04:21:01.829Z,0.00
2022-09-01T04:22:01.825Z,0.00
2022-09-01T04:23:01.797Z,0.00
2022-09-01T04:24:01.810Z,0.00
2022-09-01T04:25:01.756Z,0.00
2022-09-01T04:26:01.759Z,0.00
2022-09-01T04:27:01.754Z,0.00
2022-09-01T04:28:01.729Z,0.00
2022-09-01T04:29:01.721Z,0.00
2022-09-01T04:30:02.632Z,0.00
2022-09-01T04:31:01.692Z,0.00
2022-09-01T04:32:01.762Z,0.00
2022-09-01T04:33:01.674Z,0.00
2022-09-01T04:34:01.673Z,0.00
2022-09-01T04:35:01.665Z,0.00
2022-09-01T04:36:01.634Z,0.00
2022-09-01T04:37:01.636Z,0.00
2022-09-01T04:38:01.628Z,0.00
2022-09-01T04:39:01.621Z,0.00
2022-09-01T04:40:01.660Z,0.00
2022-09-01T04:41:01.615Z,0.00
2022-09-01T04:42:01.626Z,0.00
2022-09-01T04:43:01.611Z,0.00
2022-09-01T04:44:01.554Z,0.00
2022-09-01T04:45:09.006Z,0.00
2022-09-01T04:46:01.615Z,0.00
2022-09-01T04:47:01.527Z,0.00
2022-09-01T04:48:01.510Z,0.00
2022-09-01T04:49:01.491Z,0.00
2022-09-01T04:50:01.502Z,0.00
2022-09-01T04:51:01.547Z,0.00
2022-09-01T04:52:01.458Z,0.00
2022-09-01T04:53:01.465Z,0.00
2022-09-01T04:54:01.432Z,0.00
2022-09-01T04:55:01.443Z,0.00
2022-09-01T04:56:01.413Z,0.00
2022-09-01T04:57:01.431Z,0.00
2022-09-01T04:58:01.389Z,0.00
2022-09-01T04:59:01.404Z,0.00
2022-09-01T05:00:01.427Z,0.00
2022-09-01T05:01:01.390Z,0.00
2022-09-01T05:02:01.465Z,0.00
2022-09-01T05:03:01.354Z,0.00
2022-09-01T05:04:01.350Z,0.00
2022-09-01T05:05:01.339Z,0.00
2022-09-01T05:06:01.361Z,0.00
2022-09-01T05:07:01.401Z,0.00
2022-09-01T05:08:01.292Z,0.00
2022-09-01T05:09:01.285Z,0.00
2022-09-01T05:10:01.648Z,0.00
2022-09-01T05:11:01.259Z,0.00
2022-09-01T05:12:01.236Z,0.00
2022-09-01T05:13:01.235Z,0.00
2022-09-01T05:14:01.232Z,0.00
2022-09-01T05:15:01.211Z,0.00
2022-09-01T05:16:01.258Z,0.00
2022-09-01T05:17:01.199Z,0.00
2022-09-01T05:18:01.208Z,0.00
2022-09-01T05:19:01.176Z,0.00
2022-09-01T05:20:01.149Z,0.00
2022-09-01T05:21:01.145Z,0.00
2022-09-01T05:22:01.183Z,0.00
2022-09-01T05:23:01.115Z,0.00
2022-09-01T05:24:01.144Z,0.00
2022-09-01T05:25:01.103Z,0.00
2022-09-01T05:26:01.132Z,0.00
2022-09-01T05:27:07.596Z,0.00
2022-09-01T05:28:03.751Z,0.00
2022-09-01T05:29:01.075Z,0.00
2022-09-01T05:30:01.038Z,0.00
2022-09-01T05:31:01.131Z,0.00
2022-09-01T05:32:01.027Z,0.00
2022-09-01T05:33:01.019Z,0.00
2022-09-01T05:34:01.038Z,0.00
2022-09-01T05:35:01.027Z,0.00
2022-09-01T05:36:01.006Z,0.00
2022-09-01T05:37:00.999Z,0.00
2022-09-01T05:38:01.162Z,0.00
2022-09-01T05:39:00.965Z,0.00
2022-09-01T05:40:00.957Z,0.00
2022-09-01T05:41:00.923Z,0.00
2022-09-01T05:42:00.943Z,0.00
2022-09-01T05:43:00.909Z,0.00
2022-09-01T05:44:01.112Z,0.00
2022-09-01T05:45:00.909Z,0.00
2022-09-01T05:46:07.079Z,0.00
2022-09-01T05:47:00.919Z,0.00
2022-09-01T05:48:00.899Z,0.00
2022-09-01T05:49:00.890Z,0.00
2022-09-01T05:50:00.844Z,0.00
2022-09-01T05:51:00.829Z,0.00
2022-09-01T05:52:00.809Z,0.00
2022-09-01T05:53:00.838Z,0.00
2022-09-01T05:54:00.808Z,0.00
2022-09-01T05:55:00.893Z,0.00
2022-09-01T05:56:00.789Z,0.00
2022-09-01T05:57:17.348Z,0.00
2022-09-01T05:58:00.778Z,0.00
2022-09-01T06:00:00.737Z,0.00
2022-09-01T06:01:00.711Z,0.00
2022-09-01T06:02:01.156Z,0.00
2022-09-01T06:03:00.856Z,0.00
2022-09-01T06:04:00.683Z,0.00
2022-09-01T06:05:00.668Z,0.00
2022-09-01T06:06:00.667Z,0.00
2022-09-01T06:07:08.993Z,0.00
2022-09-01T06:08:00.673Z,0.00
2022-09-01T06:09:00.666Z,0.00
2022-09-01T06:10:00.626Z,0.00
2022-09-01T06:11:00.640Z,0.00
2022-09-01T06:12:00.650Z,0.00
2022-09-01T06:13:00.578Z,0.00
2022-09-01T06:14:00.582Z,0.00
2022-09-01T06:15:01.283Z,0.00
2022-09-01T06:16:00.639Z,0.00
2022-09-01T06:17:00.538Z,0.00
2022-09-01T06:18:00.557Z,0.00
2022-09-01T06:19:00.524Z,0.00
2022-09-01T06:20:00.517Z,0.00
2022-09-01T06:21:00.499Z,0.00
2022-09-01T06:22:00.484Z,0.00
2022-09-01T06:23:00.465Z,0.00
2022-09-01T06:24:00.499Z,0.00
2022-09-01T06:25:03.428Z,0.00
2022-09-01T06:26:00.431Z,0.00
2022-09-01T06:27:00.438Z,0.00
2022-09-01T06:28:00.440Z,0.00
2022-09-01T06:29:00.437Z,0.00
2022-09-01T06:30:00.417Z,0.00
2022-09-01T06:31:00.411Z,0.00
2022-09-01T06:32:00.363Z,0.00
2022-09-01T06:33:00.381Z,0.00
2022-09-01T06:34:00.347Z,0.00
2022-09-01T06:35:00.341Z,0.00
2022-09-01T06:36:00.326Z,0.00
2022-09-01T06:37:00.319Z,0.00
2022-09-01T06:38:00.307Z,0.00
2022-09-01T06:39:00.301Z,0.00
2022-09-01T06:40:00.274Z,0.00
2022-09-01T06:41:00.262Z,0.00
2022-09-01T06:42:00.320Z,0.00
2022-09-01T06:43:00.305Z,0.00
2022-09-01T06:44:00.236Z,0.00
2022-09-01T06:45:00.230Z,0.00
2022-09-01T06:46:00.208Z,0.00
2022-09-01T06:47:00.313Z,0.00
2022-09-01T06:48:00.506Z,0.00
2022-09-01T06:49:00.188Z,0.00
2022-09-01T06:50:00.192Z,0.00
2022-09-01T06:51:17.809Z,0.00
2022-09-01T06:52:00.196Z,0.00
2022-09-01T06:54:00.145Z,0.00
2022-09-01T06:55:03.430Z,0.00
2022-09-01T06:56:00.107Z,0.00
2022-09-01T06:57:00.300Z,0.00
2022-09-01T06:58:03.928Z,0.00
2022-09-01T06:59:00.083Z,0.00
2022-09-01T07:00:00.119Z,0.00
2022-09-01T07:01:00.048Z,0.00
2022-09-01T07:02:02.354Z,0.00
2022-09-01T07:03:00.021Z,0.00
2022-09-01T07:04:00.011Z,0.00
2022-09-01T07:05:00.064Z,0.00
2022-09-01T07:06:02.329Z,0.00
2022-09-01T07:07:01.492Z,0.00
2022-09-01T07:08:07.251Z,0.00
2022-09-01T07:10:17.688Z,0.00
2022-09-01T07:13:07.058Z,0.00
2022-09-01T07:14:15.862Z,0.00
2022-09-01T07:17:59.871Z,0.00
2022-09-01T07:18:59.839Z,0.00
2022-09-01T07:20:23.164Z,0.00
2022-09-01T07:21:07.149Z,0.00
2022-09-01T07:22:07.389Z,0.00
2022-09-01T07:23:03.801Z,0.00
2022-09-01T07:24:10.254Z,0.00
2022-09-01T07:25:12.107Z,0.00
2022-09-01T07:26:02.616Z,0.00
2022-09-01T07:27:07.525Z,0.00
2022-09-01T07:28:00.510Z,0.00
2022-09-01T07:29:01.301Z,0.00
2022-09-01T07:29:59.719Z,0.00
2022-09-01T07:31:48.808Z,0.00
2022-09-01T07:34:38.441Z,0.00
2022-09-01T07:35:06.520Z,0.00
2022-09-01T07:38:48.537Z,0.00
2022-09-01T07:43:59.563Z,0.00
2022-09-01T07:45:25.399Z,0.00
2022-09-01T07:46:00.601Z,0.00
2022-09-01T07:47:59.613Z,0.00
2022-09-01T07:49:28.733Z,0.00
2022-09-01T07:50:37.564Z,0.00
2022-09-01T07:51:59.765Z,0.00
2022-09-01T07:52:59.475Z,0.00
2022-09-01T07:53:59.447Z,0.00
2022-09-01T07:54:59.455Z,0.00
2022-09-01T07:55:59.425Z,0.00
2022-09-01T07:57:05.998Z,0.00
2022-09-01T07:57:59.400Z,0.00
2022-09-01T07:58:59.430Z,0.00
2022-09-01T07:59:59.397Z,0.00
2022-09-01T08:00:59.358Z,0.00
2022-09-01T08:01:59.388Z,0.00
2022-09-01T08:02:59.432Z,0.00
2022-09-01T08:03:59.336Z,0.00
2022-09-01T08:04:59.377Z,0.00
2022-09-01T08:05:59.303Z,0.00
2022-09-01T08:06:59.326Z,0.00
2022-09-01T08:07:59.278Z,0.00
2022-09-01T08:08:59.284Z,0.00
2022-09-01T08:10:01.418Z,0.00
2022-09-01T08:11:06.324Z,0.00
2022-09-01T08:12:02.381Z,0.00
2022-09-01T08:12:59.250Z,0.00
2022-09-01T08:13:59.228Z,0.00
2022-09-01T08:15:41.039Z,0.00
2022-09-01T08:16:07.497Z,0.00
2022-09-01T08:16:59.232Z,0.00
2022-09-01T08:17:59.282Z,0.00
2022-09-01T08:18:59.237Z,0.00
2022-09-01T08:19:59.194Z,0.00
2022-09-01T08:20:59.178Z,0.00
2022-09-01T08:21:59.132Z,0.00
2022-09-01T08:22:59.134Z,0.00
2022-09-01T08:23:59.148Z,0.00
2022-09-01T08:24:59.097Z,0.00
2022-09-01T08:25:59.098Z,0.00
2022-09-01T08:26:59.080Z,0.00
2022-09-01T08:28:00.531Z,0.00
2022-09-01T08:28:59.079Z,0.00
2022-09-01T08:29:59.070Z,0.00
2022-09-01T08:30:59.081Z,0.00
2022-09-01T08:31:59.055Z,0.00
2022-09-01T08:32:59.016Z,0.00
2022-09-01T08:34:04.096Z,0.00
2022-09-01T08:34:59.013Z,0.00
2022-09-01T08:35:58.999Z,0.00
2022-09-01T08:36:58.965Z,0.00
2022-09-01T08:37:58.962Z,0.00
2022-09-01T08:38:58.947Z,0.00
2022-09-01T08:39:58.941Z,0.00
2022-09-01T08:40:59.068Z,0.00
2022-09-01T08:41:58.908Z,0.00
2022-09-01T08:42:58.929Z,0.00
2022-09-01T08:43:58.893Z,0.00
2022-09-01T08:44:58.891Z,0.00
2022-09-01T08:45:58.901Z,0.00
2022-09-01T08:46:58.874Z,0.00
2022-09-01T08:48:29.123Z,0.00
2022-09-01T08:49:58.844Z,0.00
2022-09-01T08:50:58.820Z,0.00
2022-09-01T08:51:59.014Z,0.00
2022-09-01T08:53:09.109Z,0.00
2022-09-01T08:53:58.787Z,0.00
2022-09-01T08:54:58.770Z,0.00
2022-09-01T08:55:58.798Z,0.00
2022-09-01T08:56:58.948Z,0.00
2022-09-01T08:58:00.212Z,0.00
2022-09-01T08:59:58.725Z,0.00
2022-09-01T09:00:58.730Z,0.00
2022-09-01T09:01:58.733Z,0.00
2022-09-01T09:02:58.696Z,0.00
2022-09-01T09:03:58.659Z,0.00
2022-09-01T09:04:58.678Z,0.00
2022-09-01T09:05:58.683Z,0.00
2022-09-01T09:06:58.649Z,0.00
2022-09-01T09:08:06.527Z,0.00
2022-09-01T09:08:58.626Z,0.00
2022-09-01T09:09:58.637Z,0.00
2022-09-01T09:10:58.827Z,0.00
2022-09-01T09:11:58.572Z,0.00
2022-09-01T09:12:58.572Z,0.00
2022-09-01T09:13:58.558Z,0.00
2022-09-01T09:14:59.402Z,0.00
2022-09-01T09:16:14.044Z,0.00
2022-09-01T09:16:58.545Z,0.00
2022-09-01T09:18:00.168Z,0.00
2022-09-01T09:18:58.514Z,0.00
2022-09-01T09:19:58.520Z,0.00
2022-09-01T09:20:58.494Z,0.00
2022-09-01T09:21:58.483Z,0.00
2022-09-01T09:22:59.786Z,0.00
2022-09-01T09:23:58.471Z,0.00
2022-09-01T09:24:58.450Z,0.00
2022-09-01T09:25:58.435Z,0.00
2022-09-01T09:26:58.438Z,0.10
2022-09-01T09:28:01.485Z,0.00
2022-09-01T09:28:58.403Z,0.10
2022-09-01T09:29:58.441Z,0.10
2022-09-01T09:30:58.922Z,0.10
2022-09-01T09:31:58.428Z,0.10
2022-09-01T09:33:58.653Z,0.10
2022-09-01T09:34:59.552Z,0.10
2022-09-01T09:35:58.331Z,0.10
2022-09-01T09:36:58.326Z,0.10
2022-09-01T09:37:58.313Z,0.10
2022-09-01T09:38:58.302Z,0.20
2022-09-01T09:39:58.295Z,0.20
2022-09-01T09:41:15.915Z,0.20
2022-09-01T09:41:58.310Z,0.20
2022-09-01T09:42:59.602Z,0.20
2022-09-01T09:43:58.751Z,0.20
2022-09-01T09:44:58.894Z,0.20
2022-09-01T09:45:58.556Z,0.20
2022-09-01T09:46:58.394Z,0.20
2022-09-01T09:47:58.206Z,0.20
2022-09-01T09:48:58.237Z,0.30
2022-09-01T09:49:58.214Z,0.30
2022-09-01T09:50:58.194Z,0.30
2022-09-01T09:51:58.741Z,0.30
2022-09-01T09:52:58.175Z,0.30
2022-09-01T09:53:58.168Z,0.30
2022-09-01T09:54:58.158Z,0.30
2022-09-01T09:55:58.145Z,0.30
2022-09-01T09:56:58.149Z,0.30
2022-09-01T09:57:58.121Z,0.30
2022-09-01T09:58:58.109Z,0.30
2022-09-01T10:00:01.319Z,0.30
2022-09-01T10:00:58.189Z,0.30
2022-09-01T10:01:58.102Z,0.30
2022-09-01T10:02:58.064Z,0.30
2022-09-01T10:03:58.110Z,0.30
2022-09-01T10:04:58.062Z,0.30
2022-09-01T10:05:58.027Z,0.30
2022-09-01T10:06:58.057Z,0.30
2022-09-01T10:07:58.021Z,0.30
2022-09-01T10:08:58.001Z,0.30
2022-09-01T10:09:58.010Z,0.30
2022-09-01T10:10:58.769Z,0.40
2022-09-01T10:11:57.998Z,0.30
2022-09-01T10:12:57.957Z,0.40
2022-09-01T10:13:57.949Z,0.30
2022-09-01T10:14:57.959Z,0.40
2022-09-01T10:15:57.958Z,0.40
2022-09-01T10:16:57.964Z,0.40
2022-09-01T10:18:57.911Z,0.40
2022-09-01T10:19:57.914Z,0.30
2022-09-01T10:20:57.904Z,0.40
2022-09-01T10:21:57.874Z,0.40
2022-09-01T10:22:57.879Z,0.40
2022-09-01T10:24:16.973Z,0.30
2022-09-01T10:24:57.863Z,0.40
2022-09-01T10:25:57.861Z,0.40
2022-09-01T10:26:57.830Z,0.40
2022-09-01T10:27:58.402Z,0.40
2022-09-01T10:28:57.810Z,0.40
2022-09-01T10:30:14.122Z,0.40
2022-09-01T10:30:57.842Z,0.40
2022-09-01T10:32:27.998Z,0.40
2022-09-01T10:33:03.417Z,0.40
2022-09-01T10:33:58.663Z,0.40
2022-09-01T10:34:59.710Z,0.40
2022-09-01T10:35:58.402Z,0.40
2022-09-01T10:36:59.054Z,0.50
2022-09-01T10:37:59.152Z,0.50
2022-09-01T10:39:04.597Z,0.50
2022-09-01T10:39:57.732Z,0.50
2022-09-01T10:40:57.757Z,0.50
2022-09-01T10:41:59.641Z,0.50
2022-09-01T10:42:57.721Z,0.50
2022-09-01T10:43:59.691Z,0.50
2022-09-01T10:44:57.883Z,0.50
2022-09-01T10:46:05.294Z,0.50
2022-09-01T10:46:59.959Z,0.50
2022-09-01T10:47:57.621Z,0.50
2022-09-01T10:49:02.883Z,0.50
2022-09-01T10:49:57.630Z,0.50
2022-09-01T10:50:57.589Z,0.60
2022-09-01T10:52:02.951Z,0.60
2022-09-01T10:52:57.584Z,0.50
2022-09-01T10:54:02.160Z,0.50
2022-09-01T10:54:57.589Z,0.50
2022-09-01T10:55:59.044Z,0.50
2022-09-01T10:56:57.614Z,0.50
2022-09-01T10:58:08.535Z,0.50
2022-09-01T10:59:40.203Z,0.50
2022-09-01T10:59:57.792Z,0.50
2022-09-01T11:01:15.541Z,0.50
2022-09-01T11:02:22.882Z,0.60
2022-09-01T11:02:57.845Z,0.60
2022-09-01T11:03:57.707Z,0.60
2022-09-01T11:04:57.525Z,0.60
2022-09-01T11:06:11.309Z,0.50
2022-09-01T11:07:12.943Z,0.60
2022-09-01T11:08:00.876Z,0.70
2022-09-01T11:08:57.443Z,0.60
2022-09-01T11:09:57.765Z,0.70
2022-09-01T11:10:57.438Z,0.70
2022-09-01T11:11:57.426Z,0.70
2022-09-01T11:12:57.400Z,0.60
2022-09-01T11:13:57.384Z,0.70
2022-09-01T11:14:57.387Z,0.70
2022-09-01T11:15:58.381Z,0.40
2022-09-01T11:16:57.406Z,0.40
2022-09-01T11:17:57.449Z,0.40
2022-09-01T11:18:57.942Z,0.40
2022-09-01T11:19:57.347Z,0.30
2022-09-01T11:20:57.934Z,0.50
2022-09-01T11:21:57.316Z,0.40
2022-09-01T11:22:57.311Z,0.50
2022-09-01T11:23:57.283Z,0.40
2022-09-01T11:25:02.443Z,0.50
2022-09-01T11:26:57.268Z,0.60
2022-09-01T11:27:57.254Z,0.60
2022-09-01T11:28:57.255Z,0.30
2022-09-01T11:29:57.226Z,0.30
2022-09-01T11:30:57.259Z,0.30
2022-09-01T11:31:57.829Z,0.30
2022-09-01T11:32:57.200Z,0.60
2022-09-01T11:33:57.240Z,0.50
2022-09-01T11:34:58.714Z,0.30
2022-09-01T11:35:57.720Z,0.40
2022-09-01T11:37:00.019Z,0.50
2022-09-01T11:37:57.184Z,0.50
2022-09-01T11:38:58.154Z,0.30
2022-09-01T11:39:57.137Z,0.40
2022-09-01T11:40:57.207Z,0.30
2022-09-01T11:42:00.762Z,0.30
2022-09-01T11:42:57.133Z,0.20
2022-09-01T11:43:57.100Z,0.20
2022-09-01T11:44:57.105Z,0.20
2022-09-01T11:45:57.115Z,0.40
2022-09-01T11:46:57.080Z,0.50
2022-09-01T11:47:57.068Z,0.40
2022-09-01T11:48:57.073Z,0.50
2022-09-01T11:49:57.061Z,0.60
2022-09-01T11:50:57.043Z,0.60
2022-09-01T11:51:57.055Z,0.60
2022-09-01T11:53:00.142Z,0.70
2022-09-01T11:53:57.026Z,0.60
2022-09-01T11:54:57.013Z,0.60
2022-09-01T11:55:56.996Z,0.70
2022-09-01T11:56:56.989Z,0.80
2022-09-01T11:57:56.968Z,0.50
2022-09-01T11:58:56.965Z,0.50
2022-09-01T11:59:56.979Z,0.40
2022-09-01T12:00:56.938Z,0.40
2022-09-01T12:01:57.069Z,0.40
2022-09-01T12:02:57.042Z,0.30
2022-09-01T12:03:56.908Z,0.30
2022-09-01T12:04:56.966Z,0.30
2022-09-01T12:05:56.903Z,0.30
2022-09-01T12:06:56.915Z,0.20
2022-09-01T12:07:56.881Z,0.30
2022-09-01T12:08:56.869Z,0.40
2022-09-01T12:09:56.857Z,0.40
2022-09-01T12:10:56.894Z,0.50
2022-09-01T12:11:56.855Z,0.50
2022-09-01T12:12:56.832Z,0.60
2022-09-01T12:13:56.830Z,0.60
2022-09-01T12:15:05.694Z,0.70
2022-09-01T12:16:17.002Z,0.70
2022-09-01T12:16:56.861Z,0.70
2022-09-01T12:17:56.802Z,0.70
2022-09-01T12:18:56.797Z,0.80
2022-09-01T12:19:56.786Z,0.80
2022-09-01T12:20:56.763Z,0.90
2022-09-01T12:21:56.760Z,1.00
2022-09-01T12:22:56.736Z,1.00
2022-09-01T12:23:56.728Z,0.90
2022-09-01T12:24:57.537Z,0.60
2022-09-01T12:25:56.733Z,0.70
2022-09-01T12:26:56.712Z,0.60
2022-09-01T12:27:56.711Z,0.60
2022-09-01T12:28:56.690Z,0.50
2022-09-01T12:29:56.691Z,0.50
2022-09-01T12:30:56.666Z,0.50
2022-09-01T12:31:56.730Z,0.40
2022-09-01T12:33:56.678Z,0.30
2022-09-01T12:34:56.630Z,0.30
2022-09-01T12:35:59.526Z,0.30
2022-09-01T12:36:56.620Z,0.20
2022-09-01T12:37:56.621Z,0.30
2022-09-01T12:38:56.589Z,0.20
2022-09-01T12:39:56.623Z,0.20
2022-09-01T12:40:56.605Z,0.20
2022-09-01T12:41:56.597Z,0.20
2022-09-01T12:42:57.181Z,0.20
2022-09-01T12:43:56.613Z,0.20
2022-09-01T12:44:56.548Z,0.20
2022-09-01T12:45:56.550Z,0.20
2022-09-01T12:46:56.556Z,0.20
2022-09-01T12:47:56.560Z,0.20
2022-09-01T12:48:56.522Z,0.20
2022-09-01T12:49:56.488Z,0.20
2022-09-01T12:50:56.573Z,0.10
2022-09-01T12:51:56.490Z,0.10
2022-09-01T12:52:56.454Z,0.10
2022-09-01T12:53:58.501Z,0.20
2022-09-01T12:54:56.450Z,0.10
2022-09-01T12:55:56.463Z,0.10
2022-09-01T12:56:56.417Z,0.10
2022-09-01T12:57:56.414Z,0.10
2022-09-01T12:58:56.403Z,0.10
2022-09-01T12:59:56.408Z,0.10
2022-09-01T13:00:56.603Z,0.10
2022-09-01T13:01:56.462Z,0.10
2022-09-01T13:03:56.349Z,0.30
2022-09-01T13:04:57.245Z,0.30
2022-09-01T13:05:56.358Z,0.30
2022-09-01T13:06:56.600Z,0.30
2022-09-01T13:07:56.310Z,0.30
2022-09-01T13:08:56.719Z,0.30
2022-09-01T13:09:56.280Z,0.40
2022-09-01T13:10:56.280Z,0.40
2022-09-01T13:12:11.846Z,0.40
2022-09-01T13:12:56.253Z,0.50
2022-09-01T13:13:56.241Z,0.50
2022-09-01T13:14:56.232Z,0.50
2022-09-01T13:15:56.252Z,0.60
2022-09-01T13:16:56.230Z,0.60
2022-09-01T13:17:56.220Z,0.70
2022-09-01T13:19:11.930Z,0.70
2022-09-01T13:19:56.211Z,0.70
2022-09-01T13:20:56.211Z,0.80
2022-09-01T13:21:56.207Z,0.50
2022-09-01T13:22:56.197Z,0.50
2022-09-01T13:23:56.180Z,0.50
2022-09-01T13:24:56.966Z,0.80
2022-09-01T13:25:56.147Z,0.80
2022-09-01T13:27:56.137Z,0.70
2022-09-01T13:28:56.109Z,0.70
2022-09-01T13:29:56.140Z,0.40
2022-09-01T13:34:22.429Z,0.30
2022-09-01T13:34:56.129Z,0.30
2022-09-01T13:35:56.044Z,0.20
2022-09-01T13:36:56.045Z,0.20
2022-09-01T13:37:56.096Z,0.30
2022-09-01T13:38:56.026Z,0.40
2022-09-01T13:39:56.032Z,0.40
2022-09-01T13:40:56.957Z,0.50
2022-09-01T13:41:56.031Z,0.50
2022-09-01T13:42:56.017Z,0.50
2022-09-01T13:43:55.979Z,0.60
2022-09-01T13:44:57.011Z,0.60
2022-09-01T13:45:56.000Z,0.60
2022-09-01T13:46:59.525Z,0.60
2022-09-01T13:49:03.545Z,0.40
2022-09-01T13:50:12.461Z,0.50
2022-09-01T13:51:55.909Z,0.70
2022-09-01T13:52:55.902Z,0.70
2022-09-01T13:53:55.889Z,0.70
2022-09-01T13:54:55.898Z,0.70
2022-09-01T13:55:59.005Z,0.70
2022-09-01T13:57:02.432Z,0.70
2022-09-01T13:57:56.023Z,0.70
2022-09-01T13:58:55.844Z,0.80
2022-09-01T13:59:55.875Z,0.80
2022-09-01T14:00:55.891Z,0.80
2022-09-01T14:01:55.811Z,0.80
2022-09-01T14:02:55.814Z,0.90
2022-09-01T14:04:00.136Z,0.90
2022-09-01T14:04:55.874Z,1.00
2022-09-01T14:05:55.819Z,1.00
2022-09-01T14:06:55.775Z,1.10
2022-09-01T14:07:55.784Z,1.20
2022-09-01T14:08:55.788Z,1.10
2022-09-01T14:09:55.791Z,1.30
2022-09-01T14:10:55.763Z,1.20
2022-09-01T14:11:55.733Z,1.30
2022-09-01T14:12:55.736Z,1.30
2022-09-01T14:13:55.718Z,1.30
2022-09-01T14:15:13.738Z,1.30
2022-09-01T14:15:55.771Z,1.30
2022-09-01T14:16:55.689Z,1.40
2022-09-01T14:17:55.711Z,1.30
2022-09-01T14:18:55.677Z,1.30
2022-09-01T14:19:55.718Z,1.30
2022-09-01T14:20:55.655Z,1.30
2022-09-01T14:21:55.667Z,1.30
2022-09-01T14:22:55.642Z,1.30
2022-09-01T14:23:55.676Z,1.30
2022-09-01T14:24:55.633Z,1.30
2022-09-01T14:25:55.648Z,1.30
2022-09-01T14:26:55.634Z,1.40
2022-09-01T14:27:55.605Z,1.40
2022-09-01T14:28:55.585Z,1.50
2022-09-01T14:29:55.586Z,1.50
